createdAt,value
2018-02-06T00:01:01.257Z,101348.91
2018-02-06T00:02:07.588Z,101343.50
2018-02-06T00:03:15.298Z,101343.06
2018-02-06T00:04:22.103Z,101338.34
2018-02-06T00:05:28.476Z,101337.63
2018-02-06T00:06:35.592Z,101344.43
2018-02-06T00:07:41.914Z,101342.25
2018-02-06T00:08:48.101Z,101337.12
2018-02-06T00:09:54.311Z,101339.53
2018-02-06T00:11:00.703Z,101335.28
2018-02-06T00:12:07.954Z,101333.53
2018-02-06T00:13:14.098Z,101332.69
2018-02-06T00:14:20.412Z,101326.28
2018-02-06T00:15:26.686Z,101325.31
2018-02-06T00:16:32.953Z,101328.16
2018-02-06T00:17:39.198Z,101327.63
2018-02-06T00:18:45.353Z,101324.09
2018-02-06T00:19:51.266Z,101319.94
2018-02-06T00:20:57.449Z,101320.72
2018-02-06T00:22:06.451Z,101323.62
2018-02-06T00:23:12.372Z,101311.73
2018-02-06T00:24:18.712Z,101324.63
2018-02-06T00:25:26.129Z,101321.28
2018-02-06T00:26:32.496Z,101316.88
2018-02-06T00:27:46.824Z,101318.88
2018-02-06T00:28:53.167Z,101314.29
2018-02-06T00:29:59.369Z,101312.76
2018-02-06T00:31:05.511Z,101308.55
2018-02-06T00:32:11.696Z,101310.58
2018-02-06T00:33:17.958Z,101299.67
2018-02-06T00:34:24.102Z,101297.67
2018-02-06T00:35:30.341Z,101295.20
2018-02-06T00:36:36.452Z,101300.67
2018-02-06T00:37:42.641Z,101296.11
2018-02-06T00:38:49.412Z,101294.89
2018-02-06T00:39:55.836Z,101290.48
2018-02-06T00:41:02.073Z,101290.62
2018-02-06T00:42:08.551Z,101292.59
2018-02-06T00:43:14.710Z,101282.28
2018-02-06T00:44:21.039Z,101284.37
2018-02-06T00:45:27.392Z,101285.34
2018-02-06T00:46:33.594Z,101279.84
2018-02-06T00:47:39.846Z,101276.75
2018-02-06T00:48:45.987Z,101274.63
2018-02-06T00:49:52.920Z,101269.70
2018-02-06T00:50:59.119Z,101266.82
2018-02-06T00:52:05.281Z,101271.19
2018-02-06T00:53:11.777Z,101262.63
2018-02-06T00:54:17.932Z,101268.00
2018-02-06T00:55:24.436Z,101264.11
2018-02-06T00:56:30.584Z,101261.33
2018-02-06T00:57:39.980Z,101258.80
2018-02-06T00:58:46.261Z,101265.60
2018-02-06T00:59:52.592Z,101264.08
2018-02-06T01:00:58.985Z,101264.30
2018-02-06T01:02:05.196Z,101263.52
2018-02-06T01:03:15.056Z,101266.70
2018-02-06T01:04:21.137Z,101266.23
2018-02-06T01:05:27.416Z,101265.70
2018-02-06T01:06:34.000Z,101265.76
2018-02-06T01:07:40.255Z,101262.45
2018-02-06T01:08:46.583Z,101266.26
2018-02-06T01:09:52.958Z,101266.26
2018-02-06T01:10:59.737Z,101257.77
2018-02-06T01:12:06.027Z,101264.26
2018-02-06T01:13:12.455Z,101261.91
2018-02-06T01:14:18.731Z,101262.79
2018-02-06T01:15:24.985Z,101261.64
2018-02-06T01:16:31.147Z,101263.58
2018-02-06T01:17:37.411Z,101261.70
2018-02-06T01:18:43.576Z,101269.31
2018-02-06T01:19:49.804Z,101266.32
2018-02-06T01:20:56.007Z,101266.66
2018-02-06T01:22:02.209Z,101266.05
2018-02-06T01:23:08.354Z,101260.14
2018-02-06T01:24:14.501Z,101262.73
2018-02-06T01:25:20.418Z,101252.73
2018-02-06T01:26:27.570Z,101250.30
2018-02-06T01:27:34.010Z,101250.52
2018-02-06T01:28:40.212Z,101247.83
2018-02-06T01:29:48.415Z,101243.05
2018-02-06T01:30:54.702Z,101241.27
2018-02-06T01:32:01.043Z,101234.19
2018-02-06T01:33:07.276Z,101232.48
2018-02-06T01:34:13.453Z,101234.47
2018-02-06T01:35:19.594Z,101226.73
2018-02-06T01:36:25.804Z,101228.10
2018-02-06T01:37:32.037Z,101224.98
2018-02-06T01:38:38.448Z,101226.02
2018-02-06T01:39:44.596Z,101220.77
2018-02-06T01:40:51.006Z,101222.95
2018-02-06T01:41:57.298Z,101224.67
2018-02-06T01:43:04.360Z,101216.93
2018-02-06T01:44:10.556Z,101216.27
2018-02-06T01:45:16.775Z,101213.13
2018-02-06T01:46:23.275Z,101214.53
2018-02-06T01:47:29.424Z,101213.33
2018-02-06T01:48:35.741Z,101211.85
2018-02-06T01:49:50.033Z,101215.48
2018-02-06T01:50:55.940Z,101211.46
2018-02-06T01:52:02.174Z,101209.21
2018-02-06T01:53:08.405Z,101211.55
2018-02-06T01:54:14.570Z,101211.31
2018-02-06T01:55:20.882Z,101204.73
2018-02-06T01:56:27.088Z,101205.63
2018-02-06T01:57:33.186Z,101199.61
2018-02-06T01:58:39.364Z,101205.16
2018-02-06T01:59:45.689Z,101205.35
2018-02-06T02:00:51.953Z,101198.02
2018-02-06T02:01:58.841Z,101196.73
2018-02-06T02:03:05.124Z,101194.68
2018-02-06T02:04:12.069Z,101194.30
2018-02-06T02:05:19.114Z,101190.87
2018-02-06T02:06:25.308Z,101193.90
2018-02-06T02:07:31.368Z,101192.42
2018-02-06T02:08:37.571Z,101188.30
2018-02-06T02:09:43.496Z,101191.53
2018-02-06T02:10:49.800Z,101196.34
2018-02-06T02:11:56.093Z,101194.09
2018-02-06T02:13:01.976Z,101191.02
2018-02-06T02:14:08.176Z,101189.81
2018-02-06T02:15:14.401Z,101190.63
2018-02-06T02:16:20.336Z,101188.41
2018-02-06T02:17:26.206Z,101189.57
2018-02-06T02:18:32.564Z,101185.20
2018-02-06T02:19:38.811Z,101185.84
2018-02-06T02:20:47.108Z,101177.75
2018-02-06T02:21:53.888Z,101183.75
2018-02-06T02:22:59.786Z,101174.83
2018-02-06T02:24:06.992Z,101177.01
2018-02-06T02:25:13.336Z,101174.14
2018-02-06T02:26:19.574Z,101176.51
2018-02-06T02:27:27.007Z,101173.17
2018-02-06T02:28:33.268Z,101167.31
2018-02-06T02:29:39.563Z,101170.30
2018-02-06T02:30:45.947Z,101169.53
2018-02-06T02:31:52.467Z,101159.30
2018-02-06T02:32:58.683Z,101163.59
2018-02-06T02:34:04.879Z,101162.85
2018-02-06T02:35:11.453Z,101159.45
2018-02-06T02:36:17.602Z,101159.17
2018-02-06T02:37:23.735Z,101156.20
2018-02-06T02:38:29.903Z,101153.10
2018-02-06T02:39:36.083Z,101152.48
2018-02-06T02:40:42.275Z,101156.09
2018-02-06T04:39:09.252Z,101019.28
2018-02-06T04:40:15.403Z,101018.53
2018-02-06T04:41:21.359Z,101021.09
2018-02-06T04:42:27.541Z,101023.55
2018-02-06T04:43:35.102Z,101025.97
2018-02-06T04:44:41.044Z,101023.72
2018-02-06T04:45:46.992Z,101024.97
2018-02-06T04:46:53.176Z,101022.20
2018-02-06T04:47:59.387Z,101022.28
2018-02-06T04:49:05.369Z,101017.16
2018-02-06T04:50:11.537Z,101017.47
2018-02-06T04:51:17.515Z,101019.05
2018-02-06T04:52:23.795Z,101017.61
2018-02-06T04:53:30.295Z,101011.33
2018-02-06T04:54:36.479Z,101015.45
2018-02-06T04:55:42.614Z,101018.41
2018-02-06T04:56:48.809Z,101014.31
2018-02-06T04:57:54.967Z,101011.92
2018-02-06T04:59:01.262Z,101012.66
2018-02-06T05:00:08.341Z,101013.51
2018-02-06T05:01:14.291Z,101009.48
2018-02-06T05:02:20.646Z,101002.93
2018-02-06T05:03:26.827Z,101003.47
2018-02-06T05:04:33.019Z,101007.56
2018-02-06T05:05:39.217Z,101008.30
2018-02-06T05:06:45.429Z,101011.29
2018-02-06T05:07:51.735Z,101008.56
2018-02-06T05:08:58.741Z,101010.11
2018-02-06T05:10:04.769Z,101008.73
2018-02-06T05:11:10.941Z,101010.08
2018-02-06T05:12:17.157Z,101010.11
2018-02-06T05:13:23.327Z,101008.80
2018-02-06T05:14:29.624Z,101001.68
2018-02-06T05:15:35.813Z,101008.37
2018-02-06T05:16:42.044Z,101005.72
2018-02-06T05:17:48.253Z,101005.55
2018-02-06T05:18:54.462Z,101002.66
2018-02-06T05:20:01.519Z,100998.12
2018-02-06T05:21:07.444Z,100996.78
2018-02-06T05:22:13.647Z,100994.45
2018-02-06T05:23:19.797Z,100991.94
2018-02-06T05:24:26.100Z,101000.71
2018-02-06T05:25:32.284Z,100993.25
2018-02-06T05:26:38.236Z,100990.84
2018-02-06T05:27:44.431Z,100991.88
2018-02-06T05:28:50.644Z,100985.52
2018-02-06T05:29:56.795Z,100989.81
2018-02-06T05:31:02.692Z,100987.44
2018-02-06T05:32:08.979Z,100983.61
2018-02-06T05:33:15.111Z,100986.67
2018-02-06T05:34:21.304Z,100984.62
2018-02-06T05:35:27.477Z,100980.11
2018-02-06T05:36:33.754Z,100974.94
2018-02-06T05:37:40.276Z,100981.83
2018-02-06T05:38:58.158Z,100978.06
2018-02-06T05:40:04.365Z,100973.13
2018-02-06T05:41:10.541Z,100970.58
2018-02-06T05:42:16.728Z,100969.54
2018-02-06T05:43:22.839Z,100967.12
2018-02-06T05:44:29.144Z,100964.91
2018-02-06T05:45:37.349Z,100970.38
2018-02-06T05:46:43.632Z,100969.77
2018-02-06T05:47:49.899Z,100966.14
2018-02-06T05:48:56.182Z,100965.14
2018-02-06T05:50:02.515Z,100965.34
2018-02-06T05:51:08.672Z,100963.63
2018-02-06T05:52:14.829Z,100962.71
2018-02-06T05:53:20.997Z,100956.45
2018-02-06T05:54:27.207Z,100960.28
2018-02-06T05:55:33.368Z,100963.71
2018-02-06T05:56:39.508Z,100965.83
2018-02-06T05:57:45.729Z,100956.52
2018-02-06T05:58:51.943Z,100954.22
2018-02-06T05:59:58.143Z,100957.91
2018-02-06T06:01:04.391Z,100948.48
2018-02-06T06:02:11.604Z,100951.70
2018-02-06T06:03:17.856Z,100947.27
2018-02-06T06:04:24.052Z,100948.31
2018-02-06T06:05:30.205Z,100944.95
2018-02-06T06:06:36.431Z,100946.09
2018-02-06T06:07:42.616Z,100945.28
2018-02-06T06:08:48.799Z,100950.45
2018-02-06T06:09:54.978Z,100946.08
2018-02-06T06:11:01.270Z,100946.66
2018-02-06T06:12:07.677Z,100946.22
2018-02-06T06:13:13.812Z,100943.61
2018-02-06T06:14:20.072Z,100943.02
2018-02-06T06:15:25.976Z,100937.98
2018-02-06T06:16:32.216Z,100946.08
2018-02-06T06:17:43.780Z,100944.97
2018-02-06T06:18:49.996Z,100943.66
2018-02-06T06:19:55.852Z,100945.31
2018-02-06T06:21:02.056Z,100945.05
2018-02-06T06:22:08.588Z,100943.09
2018-02-06T06:23:14.811Z,100942.02
2018-02-06T06:24:20.969Z,100943.20
2018-02-06T06:25:27.139Z,100938.56
2018-02-06T06:26:33.244Z,100944.18
2018-02-06T06:27:39.396Z,100938.14
2018-02-06T06:28:45.574Z,100945.59
2018-02-06T06:29:51.797Z,100941.22
2018-02-06T06:30:58.053Z,100942.05
2018-02-06T06:32:04.319Z,100941.62
2018-02-06T06:33:10.598Z,100940.14
2018-02-06T06:34:16.826Z,100940.83
2018-02-06T06:35:23.124Z,100947.88
2018-02-06T06:36:29.602Z,100948.41
2018-02-06T06:37:35.795Z,100945.92
2018-02-06T06:38:42.055Z,100947.61
2018-02-06T06:39:48.218Z,100944.18
2018-02-06T06:40:54.436Z,100942.53
2018-02-06T06:42:00.724Z,100945.83
2018-02-06T06:43:07.008Z,100939.72
2018-02-06T06:44:13.201Z,100942.03
2018-02-06T06:45:19.433Z,100942.70
2018-02-06T06:46:25.654Z,100941.36
2018-02-06T06:47:31.847Z,100947.37
2018-02-06T06:48:37.989Z,100941.77
2018-02-06T06:49:44.329Z,100939.71
2018-02-06T06:50:50.743Z,100941.26
2018-02-06T06:51:56.878Z,100933.09
2018-02-06T06:53:03.012Z,100933.88
2018-02-06T06:54:09.161Z,100937.34
2018-02-06T06:55:15.366Z,100939.08
2018-02-06T06:56:21.556Z,100937.20
2018-02-06T06:57:27.697Z,100938.14
2018-02-06T06:58:33.875Z,100935.89
2018-02-06T06:59:39.753Z,100939.22
2018-02-06T07:00:46.034Z,100939.75
2018-02-06T07:01:52.129Z,100937.73
2018-02-06T07:02:58.314Z,100932.20
2018-02-06T07:04:04.511Z,100936.26
2018-02-06T07:05:10.454Z,100937.64
2018-02-06T07:06:16.639Z,100932.27
2018-02-06T07:07:22.830Z,100933.17
2018-02-06T07:08:28.983Z,100925.52
2018-02-06T07:09:35.116Z,100930.66
2018-02-06T07:10:41.296Z,100929.64
2018-02-06T07:11:47.606Z,100925.05
2018-02-06T07:12:59.702Z,100925.22
2018-02-06T07:14:05.916Z,100924.64
2018-02-06T07:15:11.756Z,100926.09
2018-02-06T07:16:17.949Z,100927.97
2018-02-06T07:17:23.816Z,100934.41
2018-02-06T07:18:29.942Z,100931.65
2018-02-06T07:19:35.908Z,100934.43
2018-02-06T07:20:42.065Z,100930.92
2018-02-06T07:21:48.334Z,100932.16
2018-02-06T07:22:56.486Z,100928.40
2018-02-06T07:24:02.713Z,100929.87
2018-02-06T07:25:08.873Z,100936.44
2018-02-06T07:26:15.106Z,100931.27
2018-02-06T07:27:21.528Z,100930.33
2018-02-06T07:28:27.883Z,100929.25
2018-02-06T07:29:34.099Z,100929.77
2018-02-06T07:30:40.540Z,100929.13
2018-02-06T07:31:47.103Z,100928.81
2018-02-06T07:32:53.360Z,100923.89
2018-02-06T07:33:59.340Z,100933.27
2018-02-06T07:35:05.551Z,100932.42
2018-02-06T07:36:11.759Z,100926.19
2018-02-06T07:37:18.761Z,100922.73
2018-02-06T07:38:25.061Z,100926.16
2018-02-06T07:39:31.272Z,100926.72
2018-02-06T07:40:37.270Z,100926.13
2018-02-06T07:41:43.435Z,100923.86
2018-02-06T07:42:49.614Z,100920.70
2018-02-06T07:43:55.482Z,100922.05
2018-02-06T07:45:01.867Z,100922.05
2018-02-06T07:46:08.068Z,100928.62
2018-02-06T07:47:14.433Z,100918.05
2018-02-06T07:48:20.718Z,100917.97
2018-02-06T07:49:26.938Z,100922.41
2018-02-06T07:50:33.181Z,100922.25
2018-02-06T07:51:39.401Z,100917.02
2018-02-06T07:52:45.633Z,100918.39
2018-02-06T07:53:51.761Z,100909.13
2018-02-06T07:54:57.990Z,100908.63
2018-02-06T07:56:04.355Z,100910.13
2018-02-06T07:57:10.533Z,100903.58
2018-02-06T07:58:17.023Z,100899.91
2018-02-06T07:59:23.160Z,100904.96
2018-02-06T08:00:29.319Z,100907.39
2018-02-06T08:01:35.543Z,100908.23
2018-02-06T08:02:42.588Z,100909.38
2018-02-06T08:03:48.910Z,100907.21
2018-02-06T08:04:54.875Z,100906.02
2018-02-06T08:06:01.124Z,100906.66
2018-02-06T08:07:07.301Z,100905.52
2018-02-06T08:08:13.223Z,100903.91
2018-02-06T08:09:19.505Z,100900.38
2018-02-06T08:10:30.896Z,100899.84
2018-02-06T08:11:37.056Z,100898.69
2018-02-06T08:12:43.240Z,100899.69
2018-02-06T08:13:49.510Z,100903.34
2018-02-06T08:14:55.698Z,100896.62
2018-02-06T08:16:01.931Z,100897.19
2018-02-06T08:17:09.259Z,100887.03
2018-02-06T08:18:15.240Z,100886.70
2018-02-06T08:19:21.605Z,100887.14
2018-02-06T08:20:27.804Z,100890.41
2018-02-06T08:21:34.832Z,100891.13
2018-02-06T08:22:40.998Z,100894.68
2018-02-06T08:23:47.153Z,100893.42
2018-02-06T08:24:53.002Z,100891.91
2018-02-06T08:25:59.415Z,100896.00
2018-02-06T08:27:05.374Z,100896.29
2018-02-06T08:28:11.637Z,100891.61
2018-02-06T08:29:17.888Z,100894.31
2018-02-06T08:30:24.126Z,100889.16
2018-02-06T08:31:30.069Z,100894.86
2018-02-06T08:32:36.389Z,100896.59
2018-02-06T08:33:43.308Z,100889.61
2018-02-06T08:34:49.525Z,100883.27
2018-02-06T08:35:55.940Z,100889.02
2018-02-06T08:37:02.284Z,100888.21
2018-02-06T08:38:09.014Z,100885.86
2018-02-06T08:39:15.274Z,100883.75
2018-02-06T08:40:21.695Z,100885.70
2018-02-06T08:41:27.851Z,100884.90
2018-02-06T08:42:34.342Z,100876.47
2018-02-06T08:43:40.560Z,100871.60
2018-02-06T08:44:46.409Z,100881.58
2018-02-06T08:45:53.088Z,100874.14
2018-02-06T08:46:59.925Z,100872.81
2018-02-06T08:48:06.632Z,100871.62
2018-02-06T08:49:12.599Z,100874.33
2018-02-06T08:50:18.919Z,100874.37
2018-02-06T08:51:25.152Z,100873.98
2018-02-06T08:52:31.398Z,100874.26
2018-02-06T08:53:37.282Z,100869.92
2018-02-06T08:54:44.529Z,100875.33
2018-02-06T08:55:50.523Z,100875.33
2018-02-06T08:56:56.930Z,100876.46
2018-02-06T08:58:03.521Z,100875.84
2018-02-06T08:59:09.723Z,100880.77
2018-02-06T09:00:15.937Z,100876.12
2018-02-06T09:01:21.808Z,100880.52
2018-02-06T09:02:28.404Z,100874.54
2018-02-06T09:03:34.599Z,100874.50
2018-02-06T09:04:41.444Z,100868.00
2018-02-06T09:05:48.684Z,100865.14
2018-02-06T09:06:54.990Z,100866.88
2018-02-06T09:08:02.420Z,100865.53
2018-02-06T09:09:11.081Z,100861.61
2018-02-06T09:10:17.527Z,100859.78
2018-02-06T09:11:23.732Z,100853.40
2018-02-06T09:12:29.881Z,100851.55
2018-02-06T09:13:36.102Z,100853.70
2018-02-06T09:14:42.640Z,100856.52
2018-02-06T09:15:48.945Z,100852.48
2018-02-06T09:16:55.176Z,100857.56
2018-02-06T09:18:01.371Z,100856.66
2018-02-06T09:19:07.378Z,100857.55
2018-02-06T09:20:13.265Z,100851.66
2018-02-06T09:21:19.568Z,100849.02
2018-02-06T09:22:25.514Z,100849.59
2018-02-06T09:23:32.308Z,100847.34
2018-02-06T09:24:38.579Z,100846.69
2018-02-06T09:25:44.731Z,100846.10
2018-02-06T09:26:51.010Z,100850.33
2018-02-06T09:27:57.091Z,100843.24
2018-02-06T09:29:03.375Z,100845.63
2018-02-06T09:30:09.664Z,100841.14
2018-02-06T09:31:15.799Z,100846.80
2018-02-06T09:32:21.704Z,100846.18
2018-02-06T09:33:27.912Z,100839.77
2018-02-06T09:34:34.062Z,100841.94
2018-02-06T09:35:41.201Z,100843.30
2018-02-06T09:36:47.566Z,100836.66
2018-02-06T09:37:55.003Z,100842.03
2018-02-06T09:39:01.651Z,100833.41
2018-02-06T09:40:07.668Z,100834.81
2018-02-06T09:41:13.873Z,100836.98
2018-02-06T09:42:20.170Z,100832.97
2018-02-06T09:43:26.413Z,100835.17
2018-02-06T09:44:32.543Z,100828.70
2018-02-06T09:45:38.852Z,100835.73
2018-02-06T09:46:44.744Z,100832.33
2018-02-06T09:47:51.594Z,100836.34
2018-02-06T09:48:57.912Z,100831.35
2018-02-06T09:50:03.747Z,100832.93
2018-02-06T09:51:09.964Z,100835.38
2018-02-06T09:52:15.922Z,100835.00
2018-02-06T09:53:22.084Z,100831.30
2018-02-06T09:54:27.649Z,100831.72
2018-02-06T09:55:33.802Z,100833.30
2018-02-06T09:56:39.984Z,100830.30
2018-02-06T09:57:46.276Z,100828.92
2018-02-06T09:58:52.651Z,100823.52
2018-02-06T09:59:58.892Z,100821.00
2018-02-06T10:01:05.050Z,100819.52
2018-02-06T10:02:11.229Z,100818.05
2018-02-06T10:03:17.432Z,100818.22
2018-02-06T10:04:23.776Z,100810.52
2018-02-06T10:05:29.927Z,100815.10
2018-02-06T10:06:36.206Z,100818.34
2018-02-06T10:07:42.438Z,100810.35
2018-02-06T10:08:48.654Z,100814.15
2018-02-06T10:09:54.953Z,100818.77
2018-02-06T10:11:01.090Z,100811.05
2018-02-06T10:12:07.296Z,100819.39
2018-02-06T10:13:13.575Z,100811.53
2018-02-06T10:14:19.912Z,100808.92
2018-02-06T10:15:26.119Z,100806.41
2018-02-06T10:16:32.405Z,100805.81
2018-02-06T10:17:38.883Z,100803.77
2018-02-06T10:18:45.364Z,100807.11
2018-02-06T10:21:02.512Z,100792.16
2018-02-06T10:22:08.840Z,100792.52
2018-02-06T10:23:15.228Z,100792.95
2018-02-06T10:24:21.057Z,100794.81
2018-02-06T10:25:27.193Z,100794.10
2018-02-06T10:26:33.423Z,100785.58
2018-02-06T10:27:40.307Z,100784.48
2018-02-06T10:28:46.623Z,100779.09
2018-02-06T10:29:53.739Z,100782.52
2018-02-06T10:31:00.973Z,100779.05
2018-02-06T10:32:07.112Z,100774.23
2018-02-06T10:33:13.154Z,100771.34
2018-02-06T10:34:20.316Z,100772.80
2018-02-06T10:35:28.295Z,100772.77
2018-02-06T10:36:34.505Z,100772.00
2018-02-06T10:37:40.688Z,100769.06
2018-02-06T10:38:47.246Z,100761.55
2018-02-06T10:39:53.470Z,100761.34
2018-02-06T10:40:59.700Z,100760.56
2018-02-06T10:42:05.852Z,100758.77
2018-02-06T10:43:12.236Z,100755.09
2018-02-06T10:44:18.428Z,100755.77
2018-02-06T10:45:25.697Z,100752.19
2018-02-06T10:46:31.947Z,100751.19
2018-02-06T10:47:38.385Z,100751.22
2018-02-06T10:48:44.552Z,100746.38
2018-02-06T10:49:50.400Z,100744.89
2018-02-06T10:50:56.556Z,100748.06
2018-02-06T10:52:03.556Z,100746.14
2018-02-06T10:53:10.676Z,100741.98
2018-02-06T10:54:16.856Z,100743.83
2018-02-06T10:55:23.151Z,100744.78
2018-02-06T10:56:29.292Z,100746.19
2018-02-06T10:57:35.485Z,100742.15
2018-02-06T10:58:41.745Z,100743.48
2018-02-06T10:59:48.141Z,100737.27
2018-02-06T11:00:54.293Z,100739.32
2018-02-06T11:02:00.423Z,100729.13
2018-02-06T11:03:08.132Z,100732.22
2018-02-06T11:04:14.368Z,100732.50
2018-02-06T11:05:20.533Z,100736.11
2018-02-06T11:06:26.698Z,100729.91
2018-02-06T11:07:32.904Z,100731.51
2018-02-06T11:08:38.898Z,100732.98
2018-02-06T11:09:45.091Z,100735.20
2018-02-06T11:10:52.416Z,100719.90
2018-02-06T11:11:58.589Z,100734.72
2018-02-06T11:13:04.746Z,100722.48
2018-02-06T11:14:11.004Z,100723.64
2018-02-06T11:15:17.416Z,100729.13
2018-02-06T11:16:23.694Z,100724.53
2018-02-06T11:17:30.005Z,100722.25
2018-02-06T11:18:36.245Z,100723.50
2018-02-06T11:19:42.424Z,100721.94
2018-02-06T11:20:48.473Z,100723.85
2018-02-06T11:21:54.702Z,100712.64
2018-02-06T11:23:00.888Z,100720.15
2018-02-06T11:24:07.142Z,100710.57
2018-02-06T11:25:14.537Z,100705.96
2018-02-06T11:26:20.966Z,100703.91
2018-02-06T11:27:27.095Z,100694.56
2018-02-06T11:28:33.189Z,100700.61
2018-02-06T11:29:39.411Z,100695.27
2018-02-06T11:30:46.414Z,100698.53
2018-02-06T11:31:52.668Z,100687.87
2018-02-06T11:32:58.891Z,100691.94
2018-02-06T11:34:05.217Z,100694.83
2018-02-06T11:35:11.359Z,100690.55
2018-02-06T11:36:17.651Z,100692.44
2018-02-06T11:37:24.718Z,100692.42
2018-02-06T11:38:30.926Z,100685.27
2018-02-06T11:39:37.170Z,100687.09
2018-02-06T11:40:43.491Z,100688.28
2018-02-06T11:41:50.533Z,100685.02
2018-02-06T11:42:56.651Z,100683.38
2018-02-06T11:44:04.135Z,100682.14
2018-02-06T11:45:10.347Z,100688.39
2018-02-06T11:46:16.494Z,100682.40
2018-02-06T11:47:22.686Z,100685.77
2018-02-06T11:48:28.872Z,100688.53
2018-02-06T11:49:35.306Z,100676.11
2018-02-06T11:50:41.678Z,100676.96
2018-02-06T11:51:47.917Z,100670.47
2018-02-06T11:52:54.081Z,100665.08
2018-02-06T11:54:00.289Z,100662.19
2018-02-06T11:55:06.476Z,100659.09
2018-02-06T11:56:12.721Z,100659.11
2018-02-06T11:57:18.892Z,100656.98
2018-02-06T11:58:25.128Z,100661.63
2018-02-06T11:59:36.820Z,100659.95
2018-02-06T12:00:43.014Z,100663.45
2018-02-06T12:01:49.286Z,100656.30
2018-02-06T12:02:55.550Z,100660.23
2018-02-06T12:04:01.707Z,100657.14
2018-02-06T12:05:07.965Z,100658.88
2018-02-06T12:06:14.172Z,100658.75
2018-02-06T12:07:20.376Z,100657.95
2018-02-06T12:08:26.479Z,100654.95
2018-02-06T12:09:32.721Z,100653.25
2018-02-06T12:10:38.884Z,100648.58
2018-02-06T12:11:45.089Z,100645.38
2018-02-06T12:12:51.238Z,100644.46
2018-02-06T12:13:57.417Z,100648.19
2018-02-06T12:15:03.580Z,100647.80
2018-02-06T12:16:10.350Z,100646.83
2018-02-06T12:17:16.529Z,100653.28
2018-02-06T12:18:22.715Z,100646.00
2018-02-06T12:19:28.929Z,100639.66
2018-02-06T12:20:35.207Z,100635.88
2018-02-06T12:21:41.560Z,100639.75
2018-02-06T12:22:47.716Z,100635.48
2018-02-06T12:23:53.989Z,100635.14
2018-02-06T12:25:00.347Z,100633.44
2018-02-06T12:26:06.578Z,100627.82
2018-02-06T12:27:12.799Z,100625.25
2018-02-06T12:28:19.000Z,100627.84
2018-02-06T12:29:25.178Z,100625.73
2018-02-06T12:30:31.376Z,100615.94
2018-02-06T12:31:42.210Z,100623.67
2018-02-06T12:32:48.420Z,100622.80
2018-02-06T12:33:55.474Z,100618.85
2018-02-06T12:35:01.656Z,100616.20
2018-02-06T12:36:07.829Z,100613.70
2018-02-06T12:37:14.018Z,100609.45
2018-02-06T12:38:20.147Z,100613.36
2018-02-06T12:39:26.384Z,100614.08
2018-02-06T12:40:32.597Z,100613.61
2018-02-06T12:41:38.845Z,100620.94
2018-02-06T12:42:44.989Z,100611.91
2018-02-06T12:43:51.191Z,100616.75
2018-02-06T12:44:57.779Z,100610.78
2018-02-06T12:46:03.945Z,100606.87
2018-02-06T12:47:10.218Z,100605.61
2018-02-06T12:48:16.116Z,100608.66
2018-02-06T12:49:22.304Z,100606.41
2018-02-06T12:50:28.491Z,100610.25
2018-02-06T12:51:34.685Z,100605.98
2018-02-06T12:52:40.804Z,100601.98
2018-02-06T12:53:47.060Z,100597.78
2018-02-06T12:54:53.304Z,100595.69
2018-02-06T12:55:59.516Z,100591.49
2018-02-06T12:57:05.704Z,100592.83
2018-02-06T12:58:11.925Z,100593.70
2018-02-06T12:59:18.936Z,100587.50
2018-02-06T13:00:25.134Z,100587.11
2018-02-06T13:01:31.056Z,100580.26
2018-02-06T13:02:37.264Z,100580.68
2018-02-06T13:03:44.764Z,100573.88
2018-02-06T13:04:51.331Z,100578.63
2018-02-06T13:05:57.559Z,100577.69
2018-02-06T13:07:03.793Z,100570.80
2018-02-06T13:08:09.061Z,100573.03
2018-02-06T13:09:15.246Z,100576.03
2018-02-06T13:10:21.407Z,100569.17
2018-02-06T13:11:27.805Z,100572.09
2018-02-06T13:12:43.867Z,100570.78
2018-02-06T13:13:50.119Z,100564.38
2018-02-06T13:14:56.334Z,100569.55
2018-02-06T13:16:02.522Z,100568.23
2018-02-06T13:17:08.528Z,100571.25
2018-02-06T13:18:14.469Z,100572.03
2018-02-06T13:19:20.605Z,100565.12
2018-02-06T13:20:26.739Z,100568.18
2018-02-06T13:21:33.022Z,100561.77
2018-02-06T13:22:39.221Z,100566.52
2018-02-06T13:23:47.972Z,100558.73
2018-02-06T13:24:54.148Z,100563.09
2018-02-06T13:26:00.349Z,100559.20
2018-02-06T13:27:06.574Z,100554.54
2018-02-06T13:28:12.826Z,100548.11
2018-02-06T13:29:19.019Z,100557.12
2018-02-06T13:30:25.898Z,100559.27
2018-02-06T13:31:31.838Z,100557.98
2018-02-06T13:32:38.043Z,100549.43
2018-02-06T13:33:44.441Z,100552.88
2018-02-06T13:34:50.848Z,100556.32
2018-02-06T13:35:56.656Z,100547.69
2018-02-06T13:37:02.899Z,100542.90
2018-02-06T13:38:09.228Z,100542.45
2018-02-06T13:39:15.425Z,100540.70
2018-02-06T13:40:21.693Z,100535.89
2018-02-06T13:41:27.652Z,100539.77
2018-02-06T13:42:33.852Z,100541.50
2018-02-06T13:43:39.857Z,100537.67
2018-02-06T13:44:46.057Z,100538.49
2018-02-06T13:45:52.307Z,100535.06
2018-02-06T13:46:58.552Z,100533.78
2018-02-06T13:48:04.776Z,100535.99
2018-02-06T13:49:10.963Z,100535.98
2018-02-06T13:50:17.150Z,100532.14
2018-02-06T13:51:27.295Z,100534.73
2018-02-06T13:52:33.690Z,100526.56
2018-02-06T13:53:39.909Z,100521.85
2018-02-06T13:54:46.124Z,100526.61
2018-02-06T13:55:52.276Z,100524.05
2018-02-06T13:56:58.472Z,100524.40
2018-02-06T13:58:04.720Z,100517.53
2018-02-06T13:59:10.947Z,100520.50
2018-02-06T14:00:17.167Z,100517.53
2018-02-06T14:01:23.420Z,100518.86
2018-02-06T14:02:29.671Z,100513.72
2018-02-06T14:03:35.914Z,100520.11
2018-02-06T14:04:42.073Z,100511.55
2018-02-06T14:05:48.287Z,100509.41
2018-02-06T14:06:54.566Z,100506.84
2018-02-06T14:08:01.393Z,100507.30
2018-02-06T14:09:07.572Z,100503.41
2018-02-06T14:10:16.648Z,100504.73
2018-02-06T14:11:22.883Z,100496.55
2018-02-06T14:12:29.588Z,100492.70
2018-02-06T14:13:36.010Z,100490.97
2018-02-06T14:14:42.202Z,100489.28
2018-02-06T14:15:48.449Z,100490.14
2018-02-06T14:16:54.564Z,100485.40
2018-02-06T14:18:00.804Z,100490.99
2018-02-06T14:19:06.947Z,100482.80
2018-02-06T14:20:13.210Z,100490.99
2018-02-06T14:21:19.960Z,100490.07
2018-02-06T14:22:26.217Z,100496.07
2018-02-06T14:23:32.363Z,100487.44
2018-02-06T14:24:38.551Z,100488.77
2018-02-06T14:25:44.729Z,100491.36
2018-02-06T14:26:50.989Z,100492.23
2018-02-06T14:27:57.303Z,100490.98
2018-02-06T14:29:04.064Z,100494.80
2018-02-06T14:30:10.534Z,100496.54
2018-02-06T14:31:16.799Z,100498.66
2018-02-06T14:32:22.973Z,100495.20
2018-02-06T14:33:28.805Z,100494.34
2018-02-06T14:34:35.029Z,100494.78
2018-02-06T14:35:41.218Z,100492.65
2018-02-06T14:36:47.355Z,100493.94